Overview Statistics Trail Chart Weather Telemetry Raw packets
 

This is the latest recevied weather packets stored in our database for station/object DK1CC-11. If no packets are shown the sender has not sent any weather packets the latest 10 day(s).

<< 1 2 3 4 >>
Time Temp. Humidity Pressure Rain* Wind** Luminosity Snow
1788568162 21.67° C 78% 1006.3 hPa - - - -
1788567264 21.67° C 75% 1006.2 hPa - - - -
1788566362 22.78° C 65% 1005.6 hPa - - - -
1788565462 23.33° C 61% 1005.5 hPa - - - -
1788564562 23.33° C 62% 1005.5 hPa - - - -
1788563662 23.33° C 62% 1005.2 hPa - - - -
1788562762 23.33° C 61% 1005 hPa - - - -
1788561862 23.89° C 60% 1005 hPa - - - -
1788560962 23.89° C 59% 1004.9 hPa - - - -
1788560061 25.56° C 55% 1004.3 hPa - - - -
1788559162 25.56° C 55% 1004.1 hPa - - - -
1788558262 25.56° C 54% 1003.9 hPa - - - -
1788557361 25.56° C 52% 1003.7 hPa - - - -
1788556462 26.11° C 51% 1003.3 hPa - - - -
1788555562 26.11° C 49% 1003.1 hPa - - - -
1788554662 26.67° C 49% 1002.8 hPa - - - -
1788553762 26.67° C 48% 1002.6 hPa - - - -
1788552861 26.67° C 48% 1002.5 hPa - - - -
1788551961 26.67° C 47% 1002.5 hPa - - - -
1788551061 26.67° C 48% 1002.4 hPa - - - -
1788550161 27.22° C 48% 1002.3 hPa - - - -
1788549261 26.67° C 49% 1002.2 hPa - - - -
1788548361 27.22° C 49% 1002.1 hPa - - - -
1788547461 27.22° C 48% 1002.1 hPa - - - -
1788546561 27.78° C 47% 1001.9 hPa - - - -

* Rain since midnight (hover to see other rain measurements)
** Current wind speed in m/s (hover to see current wind gust speed)